sensor_id;sensor_type;location;lat;lon;timestamp;P1;durP1;ratioP1;P2;durP2;ratioP2
9712;SDS011;4895;50.926;6.870;2022-11-20T00:01:10;31.47;;;16.10;;
9712;SDS011;4895;50.926;6.870;2022-11-20T00:03:39;30.13;;;16.50;;
9712;SDS011;4895;50.926;6.870;2022-11-20T00:06:06;27.47;;;14.73;;
9712;SDS011;4895;50.926;6.870;2022-11-20T00:08:34;30.03;;;16.23;;
9712;SDS011;4895;50.926;6.870;2022-11-20T00:11:03;27.10;;;14.97;;
9712;SDS011;4895;50.926;6.870;2022-11-20T00:13:30;28.60;;;15.93;;
9712;SDS011;4895;50.926;6.870;2022-11-20T00:15:59;29.40;;;16.20;;
9712;SDS011;4895;50.926;6.870;2022-11-20T00:18:25;28.83;;;15.53;;
9712;SDS011;4895;50.926;6.870;2022-11-20T00:20:51;25.27;;;13.07;;
9712;SDS011;4895;50.926;6.870;2022-11-20T00:23:16;24.53;;;14.67;;
9712;SDS011;4895;50.926;6.870;2022-11-20T00:25:42;29.40;;;16.10;;
9712;SDS011;4895;50.926;6.870;2022-11-20T00:28:07;29.37;;;15.10;;
9712;SDS011;4895;50.926;6.870;2022-11-20T00:30:32;28.63;;;15.37;;
9712;SDS011;4895;50.926;6.870;2022-11-20T00:32:58;25.47;;;14.83;;
9712;SDS011;4895;50.926;6.870;2022-11-20T00:35:23;29.60;;;16.60;;
9712;SDS011;4895;50.926;6.870;2022-11-20T00:37:48;27.03;;;15.97;;
9712;SDS011;4895;50.926;6.870;2022-11-20T00:40:14;22.53;;;14.50;;
9712;SDS011;4895;50.926;6.870;2022-11-20T00:42:39;26.60;;;15.53;;
9712;SDS011;4895;50.926;6.870;2022-11-20T00:45:05;27.67;;;16.17;;
9712;SDS011;4895;50.926;6.870;2022-11-20T00:47:31;30.37;;;16.40;;
9712;SDS011;4895;50.926;6.870;2022-11-20T00:49:57;27.47;;;14.77;;
9712;SDS011;4895;50.926;6.870;2022-11-20T00:52:22;24.10;;;14.73;;
9712;SDS011;4895;50.926;6.870;2022-11-20T00:54:48;26.43;;;14.83;;
9712;SDS011;4895;50.926;6.870;2022-11-20T00:57:13;23.20;;;13.60;;
9712;SDS011;4895;50.926;6.870;2022-11-20T00:59:38;27.73;;;15.20;;
9712;SDS011;4895;50.926;6.870;2022-11-20T01:02:03;25.20;;;14.50;;
9712;SDS011;4895;50.926;6.870;2022-11-20T01:04:29;27.03;;;15.10;;
9712;SDS011;4895;50.926;6.870;2022-11-20T01:06:54;26.93;;;14.73;;
9712;SDS011;4895;50.926;6.870;2022-11-20T01:09:19;26.70;;;15.67;;
9712;SDS011;4895;50.926;6.870;2022-11-20T01:11:45;27.57;;;15.57;;
9712;SDS011;4895;50.926;6.870;2022-11-20T01:14:12;27.73;;;15.43;;
9712;SDS011;4895;50.926;6.870;2022-11-20T01:16:40;26.50;;;15.60;;
9712;SDS011;4895;50.926;6.870;2022-11-20T01:19:09;23.10;;;13.83;;
9712;SDS011;4895;50.926;6.870;2022-11-20T01:21:38;24.57;;;14.77;;
9712;SDS011;4895;50.926;6.870;2022-11-20T01:24:05;27.10;;;14.70;;
9712;SDS011;4895;50.926;6.870;2022-11-20T01:26:34;25.20;;;14.70;;
9712;SDS011;4895;50.926;6.870;2022-11-20T01:29:01;25.37;;;14.80;;
9712;SDS011;4895;50.926;6.870;2022-11-20T01:31:31;25.00;;;14.67;;
9712;SDS011;4895;50.926;6.870;2022-11-20T01:33:59;26.87;;;15.13;;
9712;SDS011;4895;50.926;6.870;2022-11-20T01:36:26;29.17;;;15.57;;
9712;SDS011;4895;50.926;6.870;2022-11-20T01:38:53;23.53;;;14.10;;
9712;SDS011;4895;50.926;6.870;2022-11-20T01:41:20;28.37;;;15.07;;
9712;SDS011;4895;50.926;6.870;2022-11-20T01:44:09;24.87;;;13.97;;
9712;SDS011;4895;50.926;6.870;2022-11-20T01:46:36;25.37;;;14.60;;
9712;SDS011;4895;50.926;6.870;2022-11-20T01:49:04;25.77;;;15.10;;
9712;SDS011;4895;50.926;6.870;2022-11-20T01:54:39;22.90;;;14.53;;
9712;SDS011;4895;50.926;6.870;2022-11-20T01:57:04;25.20;;;13.87;;
9712;SDS011;4895;50.926;6.870;2022-11-20T01:59:30;23.73;;;13.93;;
9712;SDS011;4895;50.926;6.870;2022-11-20T02:01:55;23.30;;;14.27;;
9712;SDS011;4895;50.926;6.870;2022-11-20T02:04:21;25.33;;;14.40;;
9712;SDS011;4895;50.926;6.870;2022-11-20T02:07:00;25.70;;;14.23;;
9712;SDS011;4895;50.926;6.870;2022-11-20T02:09:26;25.90;;;15.37;;
9712;SDS011;4895;50.926;6.870;2022-11-20T02:11:52;24.53;;;14.57;;
9712;SDS011;4895;50.926;6.870;2022-11-20T02:14:17;25.97;;;15.47;;
9712;SDS011;4895;50.926;6.870;2022-11-20T02:16:46;25.17;;;14.77;;
9712;SDS011;4895;50.926;6.870;2022-11-20T02:19:16;24.80;;;13.80;;
9712;SDS011;4895;50.926;6.870;2022-11-20T02:22:00;29.90;;;15.90;;
9712;SDS011;4895;50.926;6.870;2022-11-20T02:24:29;25.77;;;14.50;;
9712;SDS011;4895;50.926;6.870;2022-11-20T02:27:04;36.67;;;16.27;;
9712;SDS011;4895;50.926;6.870;2022-11-20T02:29:52;25.47;;;14.63;;
9712;SDS011;4895;50.926;6.870;2022-11-20T02:32:23;31.77;;;16.00;;
9712;SDS011;4895;50.926;6.870;2022-11-20T02:34:50;25.83;;;14.37;;
9712;SDS011;4895;50.926;6.870;2022-11-20T02:37:16;25.57;;;14.40;;
9712;SDS011;4895;50.926;6.870;2022-11-20T02:39:41;25.07;;;14.00;;
9712;SDS011;4895;50.926;6.870;2022-11-20T02:42:08;28.17;;;15.20;;
9712;SDS011;4895;50.926;6.870;2022-11-20T02:44:33;25.20;;;15.40;;
9712;SDS011;4895;50.926;6.870;2022-11-20T02:46:58;24.50;;;14.27;;
9712;SDS011;4895;50.926;6.870;2022-11-20T02:49:24;26.50;;;15.47;;
9712;SDS011;4895;50.926;6.870;2022-11-20T02:51:50;26.17;;;15.10;;
9712;SDS011;4895;50.926;6.870;2022-11-20T02:54:15;24.27;;;14.90;;
9712;SDS011;4895;50.926;6.870;2022-11-20T02:56:40;29.23;;;15.03;;
9712;SDS011;4895;50.926;6.870;2022-11-20T02:59:06;22.33;;;13.60;;
9712;SDS011;4895;50.926;6.870;2022-11-20T03:01:31;26.80;;;15.00;;
9712;SDS011;4895;50.926;6.870;2022-11-20T03:03:56;21.70;;;14.03;;
9712;SDS011;4895;50.926;6.870;2022-11-20T03:06:21;25.27;;;13.53;;
9712;SDS011;4895;50.926;6.870;2022-11-20T03:08:47;26.47;;;13.83;;
9712;SDS011;4895;50.926;6.870;2022-11-20T03:11:13;24.97;;;14.57;;
9712;SDS011;4895;50.926;6.870;2022-11-20T03:13:38;26.47;;;14.97;;
9712;SDS011;4895;50.926;6.870;2022-11-20T03:16:08;25.00;;;14.27;;
9712;SDS011;4895;50.926;6.870;2022-11-20T03:18:46;24.53;;;13.77;;
9712;SDS011;4895;50.926;6.870;2022-11-20T03:21:12;25.67;;;14.90;;
9712;SDS011;4895;50.926;6.870;2022-11-20T03:23:37;28.77;;;15.53;;
9712;SDS011;4895;50.926;6.870;2022-11-20T03:26:20;25.60;;;14.13;;
9712;SDS011;4895;50.926;6.870;2022-11-20T03:28:48;24.13;;;14.67;;
9712;SDS011;4895;50.926;6.870;2022-11-20T03:31:15;28.80;;;15.00;;
9712;SDS011;4895;50.926;6.870;2022-11-20T03:33:41;26.77;;;14.13;;
9712;SDS011;4895;50.926;6.870;2022-11-20T03:36:08;29.00;;;14.30;;
9712;SDS011;4895;50.926;6.870;2022-11-20T03:38:36;24.50;;;14.70;;
9712;SDS011;4895;50.926;6.870;2022-11-20T03:41:02;25.40;;;14.43;;
9712;SDS011;4895;50.926;6.870;2022-11-20T03:43:32;26.33;;;14.60;;
9712;SDS011;4895;50.926;6.870;2022-11-20T03:45:58;29.83;;;15.57;;
9712;SDS011;4895;50.926;6.870;2022-11-20T03:48:24;33.43;;;16.40;;
9712;SDS011;4895;50.926;6.870;2022-11-20T03:50:50;33.80;;;16.40;;
9712;SDS011;4895;50.926;6.870;2022-11-20T03:53:16;27.20;;;14.63;;
9712;SDS011;4895;50.926;6.870;2022-11-20T03:55:42;28.47;;;16.00;;
9712;SDS011;4895;50.926;6.870;2022-11-20T03:58:08;32.07;;;14.67;;
9712;SDS011;4895;50.926;6.870;2022-11-20T04:00:33;31.90;;;15.37;;
9712;SDS011;4895;50.926;6.870;2022-11-20T04:02:59;30.87;;;15.73;;
9712;SDS011;4895;50.926;6.870;2022-11-20T04:05:25;27.60;;;15.20;;
9712;SDS011;4895;50.926;6.870;2022-11-20T04:07:50;33.10;;;14.63;;
9712;SDS011;4895;50.926;6.870;2022-11-20T04:10:15;28.43;;;15.50;;
9712;SDS011;4895;50.926;6.870;2022-11-20T04:12:41;27.90;;;15.90;;
9712;SDS011;4895;50.926;6.870;2022-11-20T04:15:06;25.47;;;14.23;;
9712;SDS011;4895;50.926;6.870;2022-11-20T04:17:32;27.80;;;15.10;;
9712;SDS011;4895;50.926;6.870;2022-11-20T04:19:57;33.80;;;16.47;;
9712;SDS011;4895;50.926;6.870;2022-11-20T04:22:23;32.83;;;15.30;;
9712;SDS011;4895;50.926;6.870;2022-11-20T04:24:48;30.57;;;15.97;;
9712;SDS011;4895;50.926;6.870;2022-11-20T04:27:13;30.97;;;16.47;;
9712;SDS011;4895;50.926;6.870;2022-11-20T04:29:38;29.80;;;15.77;;
9712;SDS011;4895;50.926;6.870;2022-11-20T04:32:04;32.90;;;17.23;;
9712;SDS011;4895;50.926;6.870;2022-11-20T04:34:29;28.07;;;15.57;;
9712;SDS011;4895;50.926;6.870;2022-11-20T04:36:55;29.77;;;15.90;;
9712;SDS011;4895;50.926;6.870;2022-11-20T04:39:20;29.17;;;15.90;;
9712;SDS011;4895;50.926;6.870;2022-11-20T04:41:45;26.67;;;15.90;;
9712;SDS011;4895;50.926;6.870;2022-11-20T04:44:11;29.33;;;15.30;;
9712;SDS011;4895;50.926;6.870;2022-11-20T04:46:37;27.10;;;15.90;;
9712;SDS011;4895;50.926;6.870;2022-11-20T04:49:03;28.70;;;16.93;;
9712;SDS011;4895;50.926;6.870;2022-11-20T04:51:29;26.80;;;15.47;;
9712;SDS011;4895;50.926;6.870;2022-11-20T04:53:54;27.50;;;16.07;;
9712;SDS011;4895;50.926;6.870;2022-11-20T04:56:20;28.87;;;16.17;;
9712;SDS011;4895;50.926;6.870;2022-11-20T04:58:45;26.90;;;15.17;;
9712;SDS011;4895;50.926;6.870;2022-11-20T05:01:15;27.87;;;15.87;;
9712;SDS011;4895;50.926;6.870;2022-11-20T05:03:45;29.93;;;16.10;;
9712;SDS011;4895;50.926;6.870;2022-11-20T05:06:11;26.50;;;15.17;;
9712;SDS011;4895;50.926;6.870;2022-11-20T05:08:37;33.40;;;17.30;;
9712;SDS011;4895;50.926;6.870;2022-11-20T05:11:04;27.67;;;14.67;;
9712;SDS011;4895;50.926;6.870;2022-11-20T05:13:40;27.13;;;15.73;;
9712;SDS011;4895;50.926;6.870;2022-11-20T05:16:07;28.90;;;15.60;;
9712;SDS011;4895;50.926;6.870;2022-11-20T05:18:34;26.00;;;14.87;;
9712;SDS011;4895;50.926;6.870;2022-11-20T05:21:00;29.17;;;16.30;;
9712;SDS011;4895;50.926;6.870;2022-11-20T05:23:26;28.37;;;15.27;;
9712;SDS011;4895;50.926;6.870;2022-11-20T05:25:52;30.43;;;16.57;;
9712;SDS011;4895;50.926;6.870;2022-11-20T05:28:18;29.60;;;15.87;;
9712;SDS011;4895;50.926;6.870;2022-11-20T05:30:43;33.13;;;17.00;;
9712;SDS011;4895;50.926;6.870;2022-11-20T05:33:09;29.50;;;16.30;;
9712;SDS011;4895;50.926;6.870;2022-11-20T05:35:34;29.20;;;17.07;;
9712;SDS011;4895;50.926;6.870;2022-11-20T05:37:59;29.57;;;16.47;;
9712;SDS011;4895;50.926;6.870;2022-11-20T05:40:25;32.90;;;16.30;;
9712;SDS011;4895;50.926;6.870;2022-11-20T05:42:50;31.00;;;16.50;;
9712;SDS011;4895;50.926;6.870;2022-11-20T05:45:15;29.23;;;16.17;;
9712;SDS011;4895;50.926;6.870;2022-11-20T05:47:41;29.23;;;16.87;;
9712;SDS011;4895;50.926;6.870;2022-11-20T05:50:07;28.33;;;15.67;;
9712;SDS011;4895;50.926;6.870;2022-11-20T05:52:32;28.90;;;16.80;;
9712;SDS011;4895;50.926;6.870;2022-11-20T05:54:58;31.97;;;17.17;;
9712;SDS011;4895;50.926;6.870;2022-11-20T05:57:23;28.93;;;16.40;;
9712;SDS011;4895;50.926;6.870;2022-11-20T05:59:48;30.73;;;17.23;;
9712;SDS011;4895;50.926;6.870;2022-11-20T06:02:14;29.47;;;16.03;;
9712;SDS011;4895;50.926;6.870;2022-11-20T06:04:39;31.10;;;17.00;;
9712;SDS011;4895;50.926;6.870;2022-11-20T06:07:05;29.17;;;16.93;;
9712;SDS011;4895;50.926;6.870;2022-11-20T06:09:31;33.90;;;18.40;;
9712;SDS011;4895;50.926;6.870;2022-11-20T06:11:56;31.13;;;16.73;;
9712;SDS011;4895;50.926;6.870;2022-11-20T06:14:22;32.60;;;18.10;;
9712;SDS011;4895;50.926;6.870;2022-11-20T06:16:47;30.00;;;16.77;;
9712;SDS011;4895;50.926;6.870;2022-11-20T06:19:12;29.63;;;16.40;;
9712;SDS011;4895;50.926;6.870;2022-11-20T06:21:38;32.37;;;16.97;;
9712;SDS011;4895;50.926;6.870;2022-11-20T06:24:03;36.33;;;16.90;;
9712;SDS011;4895;50.926;6.870;2022-11-20T06:26:29;30.80;;;16.60;;
9712;SDS011;4895;50.926;6.870;2022-11-20T06:28:55;33.63;;;17.80;;
9712;SDS011;4895;50.926;6.870;2022-11-20T06:31:21;30.27;;;17.47;;
9712;SDS011;4895;50.926;6.870;2022-11-20T06:33:48;31.10;;;17.90;;
9712;SDS011;4895;50.926;6.870;2022-11-20T06:36:14;37.50;;;18.53;;
9712;SDS011;4895;50.926;6.870;2022-11-20T06:38:40;33.67;;;18.70;;
9712;SDS011;4895;50.926;6.870;2022-11-20T06:41:07;35.53;;;18.70;;
9712;SDS011;4895;50.926;6.870;2022-11-20T06:43:36;35.73;;;17.53;;
9712;SDS011;4895;50.926;6.870;2022-11-20T06:46:01;36.57;;;18.77;;
9712;SDS011;4895;50.926;6.870;2022-11-20T06:48:27;34.50;;;18.47;;
9712;SDS011;4895;50.926;6.870;2022-11-20T06:50:53;33.70;;;18.73;;
9712;SDS011;4895;50.926;6.870;2022-11-20T06:53:18;35.07;;;19.13;;
9712;SDS011;4895;50.926;6.870;2022-11-20T06:55:44;33.63;;;19.00;;
9712;SDS011;4895;50.926;6.870;2022-11-20T06:58:11;32.47;;;18.40;;
9712;SDS011;4895;50.926;6.870;2022-11-20T07:00:37;33.00;;;18.33;;
9712;SDS011;4895;50.926;6.870;2022-11-20T07:03:03;34.00;;;18.37;;
9712;SDS011;4895;50.926;6.870;2022-11-20T07:05:29;35.33;;;18.23;;
9712;SDS011;4895;50.926;6.870;2022-11-20T07:07:55;35.30;;;19.27;;
9712;SDS011;4895;50.926;6.870;2022-11-20T07:10:21;39.90;;;19.00;;
9712;SDS011;4895;50.926;6.870;2022-11-20T07:12:50;37.83;;;20.40;;
9712;SDS011;4895;50.926;6.870;2022-11-20T07:15:16;40.60;;;19.03;;
9712;SDS011;4895;50.926;6.870;2022-11-20T07:17:42;39.83;;;20.47;;
9712;SDS011;4895;50.926;6.870;2022-11-20T07:20:07;34.50;;;19.40;;
9712;SDS011;4895;50.926;6.870;2022-11-20T07:22:33;37.47;;;19.10;;
9712;SDS011;4895;50.926;6.870;2022-11-20T07:24:58;40.93;;;20.07;;
9712;SDS011;4895;50.926;6.870;2022-11-20T07:27:24;37.47;;;18.97;;
9712;SDS011;4895;50.926;6.870;2022-11-20T07:29:49;37.83;;;18.60;;
9712;SDS011;4895;50.926;6.870;2022-11-20T07:32:14;36.77;;;19.50;;
9712;SDS011;4895;50.926;6.870;2022-11-20T07:34:40;34.87;;;18.53;;
9712;SDS011;4895;50.926;6.870;2022-11-20T07:37:05;33.50;;;18.20;;
9712;SDS011;4895;50.926;6.870;2022-11-20T07:39:30;34.40;;;18.73;;
9712;SDS011;4895;50.926;6.870;2022-11-20T07:41:56;39.10;;;21.00;;
9712;SDS011;4895;50.926;6.870;2022-11-20T07:44:21;33.83;;;19.43;;
9712;SDS011;4895;50.926;6.870;2022-11-20T07:46:46;44.00;;;20.53;;
9712;SDS011;4895;50.926;6.870;2022-11-20T07:49:12;38.07;;;20.30;;
9712;SDS011;4895;50.926;6.870;2022-11-20T07:51:37;33.53;;;17.97;;
9712;SDS011;4895;50.926;6.870;2022-11-20T07:54:02;45.67;;;20.63;;
9712;SDS011;4895;50.926;6.870;2022-11-20T07:56:28;35.27;;;18.80;;
9712;SDS011;4895;50.926;6.870;2022-11-20T07:58:53;34.00;;;18.93;;
9712;SDS011;4895;50.926;6.870;2022-11-20T08:01:18;36.83;;;18.00;;
9712;SDS011;4895;50.926;6.870;2022-11-20T08:03:44;27.17;;;12.40;;
9712;SDS011;4895;50.926;6.870;2022-11-20T08:06:09;40.10;;;21.10;;
9712;SDS011;4895;50.926;6.870;2022-11-20T08:08:34;41.53;;;19.13;;
9712;SDS011;4895;50.926;6.870;2022-11-20T08:11:00;32.00;;;17.50;;
9712;SDS011;4895;50.926;6.870;2022-11-20T08:13:45;36.13;;;18.57;;
9712;SDS011;4895;50.926;6.870;2022-11-20T08:16:29;32.07;;;19.07;;
9712;SDS011;4895;50.926;6.870;2022-11-20T08:18:54;40.90;;;20.60;;
9712;SDS011;4895;50.926;6.870;2022-11-20T08:21:20;38.70;;;20.83;;
9712;SDS011;4895;50.926;6.870;2022-11-20T08:23:45;36.57;;;20.50;;
9712;SDS011;4895;50.926;6.870;2022-11-20T08:26:11;36.93;;;19.10;;
9712;SDS011;4895;50.926;6.870;2022-11-20T08:28:37;41.43;;;21.33;;
9712;SDS011;4895;50.926;6.870;2022-11-20T08:31:03;39.53;;;20.77;;
9712;SDS011;4895;50.926;6.870;2022-11-20T08:33:29;42.40;;;19.60;;
9712;SDS011;4895;50.926;6.870;2022-11-20T08:35:58;39.70;;;19.90;;
9712;SDS011;4895;50.926;6.870;2022-11-20T08:38:26;35.40;;;18.57;;
9712;SDS011;4895;50.926;6.870;2022-11-20T08:40:51;39.17;;;19.20;;
9712;SDS011;4895;50.926;6.870;2022-11-20T08:43:43;34.67;;;19.00;;
9712;SDS011;4895;50.926;6.870;2022-11-20T08:46:08;39.37;;;19.07;;
9712;SDS011;4895;50.926;6.870;2022-11-20T08:48:33;38.30;;;19.90;;
9712;SDS011;4895;50.926;6.870;2022-11-20T08:50:59;45.30;;;19.87;;
9712;SDS011;4895;50.926;6.870;2022-11-20T08:53:24;36.73;;;18.90;;
9712;SDS011;4895;50.926;6.870;2022-11-20T08:55:50;42.43;;;21.00;;
9712;SDS011;4895;50.926;6.870;2022-11-20T08:58:15;38.47;;;19.33;;
9712;SDS011;4895;50.926;6.870;2022-11-20T09:00:41;36.77;;;19.10;;
9712;SDS011;4895;50.926;6.870;2022-11-20T09:03:06;36.77;;;18.27;;
9712;SDS011;4895;50.926;6.870;2022-11-20T09:05:31;37.50;;;19.67;;
9712;SDS011;4895;50.926;6.870;2022-11-20T09:07:57;39.40;;;19.50;;
9712;SDS011;4895;50.926;6.870;2022-11-20T09:10:22;32.27;;;16.67;;
9712;SDS011;4895;50.926;6.870;2022-11-20T09:12:48;30.20;;;17.00;;
9712;SDS011;4895;50.926;6.870;2022-11-20T09:15:14;26.40;;;13.90;;
9712;SDS011;4895;50.926;6.870;2022-11-20T09:17:40;30.67;;;16.10;;
9712;SDS011;4895;50.926;6.870;2022-11-20T09:20:05;30.63;;;14.67;;
9712;SDS011;4895;50.926;6.870;2022-11-20T09:22:31;33.13;;;16.13;;
9712;SDS011;4895;50.926;6.870;2022-11-20T09:24:56;29.47;;;16.00;;
9712;SDS011;4895;50.926;6.870;2022-11-20T09:27:21;33.53;;;17.83;;
9712;SDS011;4895;50.926;6.870;2022-11-20T09:29:47;35.23;;;16.53;;
9712;SDS011;4895;50.926;6.870;2022-11-20T09:32:12;34.10;;;17.60;;
9712;SDS011;4895;50.926;6.870;2022-11-20T09:34:37;31.80;;;17.80;;
9712;SDS011;4895;50.926;6.870;2022-11-20T09:37:03;32.00;;;16.93;;
9712;SDS011;4895;50.926;6.870;2022-11-20T09:39:28;35.17;;;18.93;;
9712;SDS011;4895;50.926;6.870;2022-11-20T09:45:12;34.97;;;18.67;;
9712;SDS011;4895;50.926;6.870;2022-11-20T09:56:19;40.10;;;19.93;;
9712;SDS011;4895;50.926;6.870;2022-11-20T09:58:46;40.47;;;19.70;;
9712;SDS011;4895;50.926;6.870;2022-11-20T10:12:09;38.17;;;19.83;;
9712;SDS011;4895;50.926;6.870;2022-11-20T10:25:39;43.70;;;21.47;;
9712;SDS011;4895;50.926;6.870;2022-11-20T10:28:23;42.03;;;21.90;;
9712;SDS011;4895;50.926;6.870;2022-11-20T10:30:55;51.30;;;22.63;;
9712;SDS011;4895;50.926;6.870;2022-11-20T10:33:25;49.37;;;21.23;;
9712;SDS011;4895;50.926;6.870;2022-11-20T10:35:58;45.30;;;21.80;;
9712;SDS011;4895;50.926;6.870;2022-11-20T10:38:32;42.90;;;20.70;;
9712;SDS011;4895;50.926;6.870;2022-11-20T10:41:01;46.07;;;22.63;;
9712;SDS011;4895;50.926;6.870;2022-11-20T10:43:46;40.97;;;22.00;;
9712;SDS011;4895;50.926;6.870;2022-11-20T10:46:21;46.00;;;22.07;;
9712;SDS011;4895;50.926;6.870;2022-11-20T10:48:47;45.20;;;21.17;;
9712;SDS011;4895;50.926;6.870;2022-11-20T10:56:35;42.40;;;20.63;;
9712;SDS011;4895;50.926;6.870;2022-11-20T10:59:19;43.57;;;20.63;;
9712;SDS011;4895;50.926;6.870;2022-11-20T11:01:50;37.00;;;18.77;;
9712;SDS011;4895;50.926;6.870;2022-11-20T11:10:01;39.07;;;18.87;;
9712;SDS011;4895;50.926;6.870;2022-11-20T11:12:30;38.50;;;19.50;;
9712;SDS011;4895;50.926;6.870;2022-11-20T11:14:56;37.27;;;19.73;;
9712;SDS011;4895;50.926;6.870;2022-11-20T11:17:27;48.80;;;19.07;;
9712;SDS011;4895;50.926;6.870;2022-11-20T11:22:43;36.73;;;18.80;;
9712;SDS011;4895;50.926;6.870;2022-11-20T11:27:50;37.50;;;19.27;;
9712;SDS011;4895;50.926;6.870;2022-11-20T11:30:17;38.53;;;20.40;;
9712;SDS011;4895;50.926;6.870;2022-11-20T11:32:44;35.47;;;18.30;;
9712;SDS011;4895;50.926;6.870;2022-11-20T11:35:24;36.70;;;19.23;;
9712;SDS011;4895;50.926;6.870;2022-11-20T11:37:51;41.80;;;19.50;;
9712;SDS011;4895;50.926;6.870;2022-11-20T11:40:19;40.47;;;19.70;;
9712;SDS011;4895;50.926;6.870;2022-11-20T11:42:46;40.53;;;19.97;;
9712;SDS011;4895;50.926;6.870;2022-11-20T11:45:17;39.70;;;19.83;;
9712;SDS011;4895;50.926;6.870;2022-11-20T11:47:44;39.83;;;20.33;;
9712;SDS011;4895;50.926;6.870;2022-11-20T11:55:43;44.53;;;20.37;;
9712;SDS011;4895;50.926;6.870;2022-11-20T12:00:56;38.17;;;19.23;;
9712;SDS011;4895;50.926;6.870;2022-11-20T12:03:34;37.13;;;19.87;;
9712;SDS011;4895;50.926;6.870;2022-11-20T12:06:03;38.70;;;19.77;;
9712;SDS011;4895;50.926;6.870;2022-11-20T12:08:43;42.40;;;20.63;;
9712;SDS011;4895;50.926;6.870;2022-11-20T12:11:13;38.43;;;20.97;;
9712;SDS011;4895;50.926;6.870;2022-11-20T12:13:48;40.20;;;20.83;;
9712;SDS011;4895;50.926;6.870;2022-11-20T12:16:19;35.93;;;18.67;;
9712;SDS011;4895;50.926;6.870;2022-11-20T12:18:45;33.63;;;18.10;;
9712;SDS011;4895;50.926;6.870;2022-11-20T12:31:56;35.90;;;20.20;;
9712;SDS011;4895;50.926;6.870;2022-11-20T12:37:44;37.67;;;18.63;;
9712;SDS011;4895;50.926;6.870;2022-11-20T12:46:08;36.83;;;18.13;;
9712;SDS011;4895;50.926;6.870;2022-11-20T12:51:20;36.83;;;18.07;;
9712;SDS011;4895;50.926;6.870;2022-11-20T13:02:44;36.27;;;19.93;;
9712;SDS011;4895;50.926;6.870;2022-11-20T13:08:15;33.23;;;17.77;;
9712;SDS011;4895;50.926;6.870;2022-11-20T13:10:55;36.83;;;18.40;;
9712;SDS011;4895;50.926;6.870;2022-11-20T13:13:29;41.83;;;19.60;;
9712;SDS011;4895;50.926;6.870;2022-11-20T13:16:05;38.50;;;18.93;;
9712;SDS011;4895;50.926;6.870;2022-11-20T13:18:36;37.37;;;18.37;;
9712;SDS011;4895;50.926;6.870;2022-11-20T13:21:14;39.87;;;18.33;;
9712;SDS011;4895;50.926;6.870;2022-11-20T13:23:39;38.73;;;20.10;;
9712;SDS011;4895;50.926;6.870;2022-11-20T13:26:06;38.70;;;18.70;;
9712;SDS011;4895;50.926;6.870;2022-11-20T13:28:40;36.20;;;18.30;;
9712;SDS011;4895;50.926;6.870;2022-11-20T13:31:09;33.60;;;17.83;;
9712;SDS011;4895;50.926;6.870;2022-11-20T13:33:58;34.33;;;18.67;;
9712;SDS011;4895;50.926;6.870;2022-11-20T13:36:26;32.60;;;18.63;;
9712;SDS011;4895;50.926;6.870;2022-11-20T13:38:53;36.43;;;17.17;;
9712;SDS011;4895;50.926;6.870;2022-11-20T13:41:38;31.93;;;17.07;;
9712;SDS011;4895;50.926;6.870;2022-11-20T13:46:40;33.93;;;16.67;;
9712;SDS011;4895;50.926;6.870;2022-11-20T13:49:09;32.97;;;17.60;;
9712;SDS011;4895;50.926;6.870;2022-11-20T13:51:51;37.33;;;18.43;;
9712;SDS011;4895;50.926;6.870;2022-11-20T13:55:00;34.63;;;18.70;;
9712;SDS011;4895;50.926;6.870;2022-11-20T14:00:19;31.30;;;17.50;;
9712;SDS011;4895;50.926;6.870;2022-11-20T14:05:29;36.03;;;19.38;;
9712;SDS011;4895;50.926;6.870;2022-11-20T14:07:57;35.47;;;18.77;;
9712;SDS011;4895;50.926;6.870;2022-11-20T14:10:32;36.03;;;19.30;;
9712;SDS011;4895;50.926;6.870;2022-11-20T14:12:58;40.60;;;19.90;;
9712;SDS011;4895;50.926;6.870;2022-11-20T14:15:31;39.70;;;21.00;;
9712;SDS011;4895;50.926;6.870;2022-11-20T14:17:58;36.07;;;17.87;;
9712;SDS011;4895;50.926;6.870;2022-11-20T14:20:26;40.97;;;19.40;;
9712;SDS011;4895;50.926;6.870;2022-11-20T14:22:53;39.07;;;18.97;;
9712;SDS011;4895;50.926;6.870;2022-11-20T14:25:20;38.07;;;19.60;;
9712;SDS011;4895;50.926;6.870;2022-11-20T14:27:55;38.87;;;19.53;;
9712;SDS011;4895;50.926;6.870;2022-11-20T14:30:22;33.60;;;17.30;;
9712;SDS011;4895;50.926;6.870;2022-11-20T14:32:56;33.33;;;18.37;;
9712;SDS011;4895;50.926;6.870;2022-11-20T14:35:26;38.80;;;18.70;;
9712;SDS011;4895;50.926;6.870;2022-11-20T14:37:52;34.23;;;18.73;;
9712;SDS011;4895;50.926;6.870;2022-11-20T14:42:48;37.93;;;19.57;;
9712;SDS011;4895;50.926;6.870;2022-11-20T14:45:14;37.93;;;19.13;;
9712;SDS011;4895;50.926;6.870;2022-11-20T14:47:39;36.03;;;19.50;;
9712;SDS011;4895;50.926;6.870;2022-11-20T14:50:07;38.90;;;18.70;;
9712;SDS011;4895;50.926;6.870;2022-11-20T14:52:38;32.10;;;18.50;;
9712;SDS011;4895;50.926;6.870;2022-11-20T14:55:03;34.80;;;18.90;;
9712;SDS011;4895;50.926;6.870;2022-11-20T14:57:33;39.93;;;17.50;;
9712;SDS011;4895;50.926;6.870;2022-11-20T15:02:43;33.47;;;17.90;;
9712;SDS011;4895;50.926;6.870;2022-11-20T15:05:12;37.27;;;18.33;;
9712;SDS011;4895;50.926;6.870;2022-11-20T15:07:39;35.97;;;18.10;;
9712;SDS011;4895;50.926;6.870;2022-11-20T15:10:12;31.77;;;17.57;;
9712;SDS011;4895;50.926;6.870;2022-11-20T15:15:28;37.60;;;18.60;;
9712;SDS011;4895;50.926;6.870;2022-11-20T15:18:00;36.97;;;19.07;;
9712;SDS011;4895;50.926;6.870;2022-11-20T15:20:26;41.90;;;19.40;;
9712;SDS011;4895;50.926;6.870;2022-11-20T15:22:53;42.73;;;20.00;;
9712;SDS011;4895;50.926;6.870;2022-11-20T15:25:19;38.87;;;20.33;;
9712;SDS011;4895;50.926;6.870;2022-11-20T15:27:44;42.20;;;21.43;;
9712;SDS011;4895;50.926;6.870;2022-11-20T15:30:17;37.73;;;20.60;;
9712;SDS011;4895;50.926;6.870;2022-11-20T15:32:44;43.17;;;18.60;;
9712;SDS011;4895;50.926;6.870;2022-11-20T15:35:10;38.43;;;19.00;;
9712;SDS011;4895;50.926;6.870;2022-11-20T15:37:36;37.93;;;18.40;;
9712;SDS011;4895;50.926;6.870;2022-11-20T15:40:02;35.77;;;18.53;;
9712;SDS011;4895;50.926;6.870;2022-11-20T15:42:28;39.20;;;18.00;;
9712;SDS011;4895;50.926;6.870;2022-11-20T15:44:53;36.63;;;16.87;;
9712;SDS011;4895;50.926;6.870;2022-11-20T15:47:19;34.50;;;18.10;;
9712;SDS011;4895;50.926;6.870;2022-11-20T15:49:46;34.03;;;16.60;;
9712;SDS011;4895;50.926;6.870;2022-11-20T15:52:12;34.73;;;17.43;;
9712;SDS011;4895;50.926;6.870;2022-11-20T15:54:38;34.60;;;17.10;;
9712;SDS011;4895;50.926;6.870;2022-11-20T15:57:03;39.60;;;18.20;;
9712;SDS011;4895;50.926;6.870;2022-11-20T15:59:28;35.03;;;17.70;;
9712;SDS011;4895;50.926;6.870;2022-11-20T16:01:54;36.70;;;17.97;;
9712;SDS011;4895;50.926;6.870;2022-11-20T16:04:19;34.30;;;16.50;;
9712;SDS011;4895;50.926;6.870;2022-11-20T16:06:44;35.03;;;18.23;;
9712;SDS011;4895;50.926;6.870;2022-11-20T16:09:10;32.60;;;16.77;;
9712;SDS011;4895;50.926;6.870;2022-11-20T16:11:35;29.73;;;15.00;;
9712;SDS011;4895;50.926;6.870;2022-11-20T16:14:01;34.17;;;15.87;;
9712;SDS011;4895;50.926;6.870;2022-11-20T16:16:46;25.50;;;14.20;;
9712;SDS011;4895;50.926;6.870;2022-11-20T16:19:12;29.80;;;14.50;;
9712;SDS011;4895;50.926;6.870;2022-11-20T16:21:38;30.47;;;14.50;;
9712;SDS011;4895;50.926;6.870;2022-11-20T16:24:06;30.53;;;13.40;;
9712;SDS011;4895;50.926;6.870;2022-11-20T16:26:32;31.03;;;14.07;;
9712;SDS011;4895;50.926;6.870;2022-11-20T16:28:58;35.10;;;15.90;;
9712;SDS011;4895;50.926;6.870;2022-11-20T16:31:24;29.90;;;14.30;;
9712;SDS011;4895;50.926;6.870;2022-11-20T16:33:50;28.87;;;12.47;;
9712;SDS011;4895;50.926;6.870;2022-11-20T16:36:17;25.53;;;12.57;;
9712;SDS011;4895;50.926;6.870;2022-11-20T16:38:42;24.17;;;12.23;;
9712;SDS011;4895;50.926;6.870;2022-11-20T16:41:08;29.40;;;12.00;;
9712;SDS011;4895;50.926;6.870;2022-11-20T16:43:59;21.70;;;9.93;;